sensor_id;sensor_type;location;lat;lon;timestamp;P1;durP1;ratioP1;P2;durP2;ratioP2
25123;SDS011;13104;51.030;4.686;2023-07-20T00:01:22;7.10;;;3.80;;
25123;SDS011;13104;51.030;4.686;2023-07-20T00:03:48;10.15;;;4.30;;
25123;SDS011;13104;51.030;4.686;2023-07-20T00:06:20;11.80;;;4.00;;
25123;SDS011;13104;51.030;4.686;2023-07-20T00:08:46;11.13;;;3.83;;
25123;SDS011;13104;51.030;4.686;2023-07-20T00:11:12;10.70;;;4.07;;
25123;SDS011;13104;51.030;4.686;2023-07-20T00:13:38;7.18;;;4.07;;
25123;SDS011;13104;51.030;4.686;2023-07-20T00:16:05;8.90;;;3.90;;
25123;SDS011;13104;51.030;4.686;2023-07-20T00:18:31;11.45;;;4.72;;
25123;SDS011;13104;51.030;4.686;2023-07-20T00:20:57;7.03;;;3.78;;
25123;SDS011;13104;51.030;4.686;2023-07-20T00:23:24;10.70;;;4.35;;
25123;SDS011;13104;51.030;4.686;2023-07-20T00:25:51;8.65;;;3.90;;
25123;SDS011;13104;51.030;4.686;2023-07-20T00:28:17;11.55;;;4.15;;
25123;SDS011;13104;51.030;4.686;2023-07-20T00:30:43;9.35;;;3.88;;
25123;SDS011;13104;51.030;4.686;2023-07-20T00:33:12;8.88;;;3.83;;
25123;SDS011;13104;51.030;4.686;2023-07-20T00:35:39;9.55;;;4.53;;
25123;SDS011;13104;51.030;4.686;2023-07-20T00:38:05;11.23;;;3.83;;
25123;SDS011;13104;51.030;4.686;2023-07-20T00:40:35;8.57;;;3.83;;
25123;SDS011;13104;51.030;4.686;2023-07-20T00:43:02;10.27;;;4.22;;
25123;SDS011;13104;51.030;4.686;2023-07-20T00:45:28;13.32;;;4.13;;
25123;SDS011;13104;51.030;4.686;2023-07-20T00:47:55;11.38;;;4.07;;
25123;SDS011;13104;51.030;4.686;2023-07-20T00:50:21;11.02;;;4.35;;
25123;SDS011;13104;51.030;4.686;2023-07-20T00:52:47;11.85;;;4.57;;
25123;SDS011;13104;51.030;4.686;2023-07-20T00:55:14;11.27;;;4.68;;
25123;SDS011;13104;51.030;4.686;2023-07-20T00:57:41;11.52;;;4.38;;
25123;SDS011;13104;51.030;4.686;2023-07-20T01:00:07;7.97;;;4.47;;
25123;SDS011;13104;51.030;4.686;2023-07-20T01:02:33;9.38;;;4.15;;
25123;SDS011;13104;51.030;4.686;2023-07-20T01:04:59;9.23;;;4.88;;
25123;SDS011;13104;51.030;4.686;2023-07-20T01:07:36;11.50;;;4.40;;
25123;SDS011;13104;51.030;4.686;2023-07-20T01:10:12;9.40;;;3.78;;
25123;SDS011;13104;51.030;4.686;2023-07-20T01:12:42;10.23;;;4.20;;
25123;SDS011;13104;51.030;4.686;2023-07-20T01:15:09;12.15;;;4.13;;
25123;SDS011;13104;51.030;4.686;2023-07-20T01:17:36;9.27;;;4.10;;
25123;SDS011;13104;51.030;4.686;2023-07-20T01:20:02;9.93;;;4.40;;
25123;SDS011;13104;51.030;4.686;2023-07-20T01:27:38;17.65;;;4.80;;
25123;SDS011;13104;51.030;4.686;2023-07-20T01:32:33;15.80;;;4.78;;
25123;SDS011;13104;51.030;4.686;2023-07-20T01:34:59;11.27;;;4.95;;
25123;SDS011;13104;51.030;4.686;2023-07-20T01:37:25;9.88;;;4.85;;
25123;SDS011;13104;51.030;4.686;2023-07-20T01:39:54;12.95;;;4.70;;
25123;SDS011;13104;51.030;4.686;2023-07-20T01:42:21;11.70;;;5.00;;
25123;SDS011;13104;51.030;4.686;2023-07-20T01:44:50;13.95;;;5.05;;
25123;SDS011;13104;51.030;4.686;2023-07-20T01:47:19;9.48;;;4.30;;
25123;SDS011;13104;51.030;4.686;2023-07-20T01:49:46;10.75;;;4.90;;
25123;SDS011;13104;51.030;4.686;2023-07-20T01:52:12;10.43;;;4.30;;
25123;SDS011;13104;51.030;4.686;2023-07-20T01:54:38;8.90;;;4.40;;
25123;SDS011;13104;51.030;4.686;2023-07-20T01:57:04;15.10;;;5.00;;
25123;SDS011;13104;51.030;4.686;2023-07-20T01:59:30;13.40;;;5.18;;
25123;SDS011;13104;51.030;4.686;2023-07-20T02:01:56;7.35;;;4.40;;
25123;SDS011;13104;51.030;4.686;2023-07-20T02:04:22;8.02;;;4.47;;
25123;SDS011;13104;51.030;4.686;2023-07-20T02:06:48;9.65;;;4.82;;
25123;SDS011;13104;51.030;4.686;2023-07-20T02:09:14;11.10;;;4.55;;
25123;SDS011;13104;51.030;4.686;2023-07-20T02:11:41;8.57;;;5.15;;
25123;SDS011;13104;51.030;4.686;2023-07-20T02:14:07;11.45;;;5.43;;
25123;SDS011;13104;51.030;4.686;2023-07-20T02:16:33;10.32;;;4.97;;
25123;SDS011;13104;51.030;4.686;2023-07-20T02:18:59;12.10;;;5.05;;
25123;SDS011;13104;51.030;4.686;2023-07-20T02:21:25;11.77;;;5.22;;
25123;SDS011;13104;51.030;4.686;2023-07-20T02:23:51;9.73;;;4.75;;
25123;SDS011;13104;51.030;4.686;2023-07-20T02:26:17;12.82;;;6.03;;
25123;SDS011;13104;51.030;4.686;2023-07-20T02:28:43;15.68;;;5.40;;
25123;SDS011;13104;51.030;4.686;2023-07-20T02:31:09;11.25;;;5.72;;
25123;SDS011;13104;51.030;4.686;2023-07-20T02:33:35;9.00;;;5.20;;
25123;SDS011;13104;51.030;4.686;2023-07-20T02:36:01;14.98;;;5.68;;
25123;SDS011;13104;51.030;4.686;2023-07-20T02:38:27;12.18;;;5.00;;
25123;SDS011;13104;51.030;4.686;2023-07-20T02:40:53;9.43;;;5.00;;
25123;SDS011;13104;51.030;4.686;2023-07-20T02:43:20;10.23;;;5.35;;
25123;SDS011;13104;51.030;4.686;2023-07-20T02:45:46;11.73;;;6.05;;
25123;SDS011;13104;51.030;4.686;2023-07-20T02:48:12;12.35;;;5.57;;
25123;SDS011;13104;51.030;4.686;2023-07-20T02:50:39;13.38;;;6.45;;
25123;SDS011;13104;51.030;4.686;2023-07-20T02:53:05;11.57;;;6.03;;
25123;SDS011;13104;51.030;4.686;2023-07-20T02:55:31;14.13;;;6.22;;
25123;SDS011;13104;51.030;4.686;2023-07-20T02:57:57;15.35;;;6.00;;
25123;SDS011;13104;51.030;4.686;2023-07-20T03:00:23;10.80;;;6.10;;
25123;SDS011;13104;51.030;4.686;2023-07-20T03:02:50;12.20;;;6.40;;
25123;SDS011;13104;51.030;4.686;2023-07-20T03:05:20;10.38;;;6.53;;
25123;SDS011;13104;51.030;4.686;2023-07-20T03:07:47;13.77;;;6.93;;
25123;SDS011;13104;51.030;4.686;2023-07-20T03:10:13;16.73;;;6.75;;
25123;SDS011;13104;51.030;4.686;2023-07-20T03:12:39;16.17;;;7.35;;
25123;SDS011;13104;51.030;4.686;2023-07-20T03:15:06;17.90;;;7.18;;
25123;SDS011;13104;51.030;4.686;2023-07-20T03:17:32;10.48;;;6.68;;
25123;SDS011;13104;51.030;4.686;2023-07-20T03:19:58;13.55;;;7.38;;
25123;SDS011;13104;51.030;4.686;2023-07-20T03:22:25;13.10;;;7.50;;
25123;SDS011;13104;51.030;4.686;2023-07-20T03:24:51;14.70;;;7.25;;
25123;SDS011;13104;51.030;4.686;2023-07-20T03:27:18;13.07;;;6.75;;
25123;SDS011;13104;51.030;4.686;2023-07-20T03:29:44;12.02;;;6.82;;
25123;SDS011;13104;51.030;4.686;2023-07-20T03:32:10;21.42;;;7.38;;
25123;SDS011;13104;51.030;4.686;2023-07-20T03:34:36;15.88;;;7.60;;
25123;SDS011;13104;51.030;4.686;2023-07-20T03:37:02;11.68;;;6.88;;
25123;SDS011;13104;51.030;4.686;2023-07-20T03:39:30;13.77;;;7.53;;
25123;SDS011;13104;51.030;4.686;2023-07-20T03:41:57;13.85;;;6.90;;
25123;SDS011;13104;51.030;4.686;2023-07-20T03:44:24;18.55;;;7.60;;
25123;SDS011;13104;51.030;4.686;2023-07-20T03:46:50;13.68;;;7.78;;
25123;SDS011;13104;51.030;4.686;2023-07-20T03:49:16;15.98;;;7.65;;
25123;SDS011;13104;51.030;4.686;2023-07-20T03:51:43;17.73;;;7.72;;
25123;SDS011;13104;51.030;4.686;2023-07-20T03:54:09;15.05;;;8.00;;
25123;SDS011;13104;51.030;4.686;2023-07-20T03:56:35;16.02;;;8.15;;
25123;SDS011;13104;51.030;4.686;2023-07-20T03:59:01;16.80;;;8.70;;
25123;SDS011;13104;51.030;4.686;2023-07-20T04:01:27;17.40;;;8.23;;
25123;SDS011;13104;51.030;4.686;2023-07-20T04:03:53;19.40;;;8.13;;
25123;SDS011;13104;51.030;4.686;2023-07-20T04:06:20;20.02;;;8.77;;
25123;SDS011;13104;51.030;4.686;2023-07-20T04:08:46;17.85;;;9.35;;
25123;SDS011;13104;51.030;4.686;2023-07-20T04:11:12;16.10;;;8.75;;
25123;SDS011;13104;51.030;4.686;2023-07-20T04:13:38;25.35;;;9.15;;
25123;SDS011;13104;51.030;4.686;2023-07-20T04:16:05;15.68;;;8.10;;
25123;SDS011;13104;51.030;4.686;2023-07-20T04:18:31;16.98;;;9.18;;
25123;SDS011;13104;51.030;4.686;2023-07-20T04:20:57;18.88;;;8.93;;
25123;SDS011;13104;51.030;4.686;2023-07-20T04:23:23;22.77;;;9.38;;
25123;SDS011;13104;51.030;4.686;2023-07-20T04:25:49;22.67;;;9.52;;
25123;SDS011;13104;51.030;4.686;2023-07-20T04:28:15;19.38;;;9.10;;
25123;SDS011;13104;51.030;4.686;2023-07-20T04:30:42;16.77;;;9.27;;
25123;SDS011;13104;51.030;4.686;2023-07-20T04:33:08;18.33;;;10.32;;
25123;SDS011;13104;51.030;4.686;2023-07-20T04:35:53;18.00;;;9.55;;
25123;SDS011;13104;51.030;4.686;2023-07-20T04:38:19;16.75;;;9.70;;
25123;SDS011;13104;51.030;4.686;2023-07-20T04:40:46;21.77;;;10.18;;
25123;SDS011;13104;51.030;4.686;2023-07-20T04:43:13;19.25;;;9.80;;
25123;SDS011;13104;51.030;4.686;2023-07-20T04:45:39;20.27;;;9.95;;
25123;SDS011;13104;51.030;4.686;2023-07-20T04:48:08;19.23;;;9.15;;
25123;SDS011;13104;51.030;4.686;2023-07-20T04:50:35;19.65;;;10.50;;
25123;SDS011;13104;51.030;4.686;2023-07-20T04:53:02;20.60;;;9.57;;
25123;SDS011;13104;51.030;4.686;2023-07-20T04:55:28;16.88;;;9.85;;
25123;SDS011;13104;51.030;4.686;2023-07-20T04:57:54;20.42;;;10.52;;
25123;SDS011;13104;51.030;4.686;2023-07-20T05:00:20;23.10;;;12.18;;
25123;SDS011;13104;51.030;4.686;2023-07-20T05:02:47;20.55;;;10.55;;
25123;SDS011;13104;51.030;4.686;2023-07-20T05:05:14;17.55;;;10.45;;
25123;SDS011;13104;51.030;4.686;2023-07-20T05:07:40;18.65;;;11.27;;
25123;SDS011;13104;51.030;4.686;2023-07-20T05:10:07;22.20;;;11.25;;
25123;SDS011;13104;51.030;4.686;2023-07-20T05:12:33;21.92;;;9.85;;
25123;SDS011;13104;51.030;4.686;2023-07-20T05:14:59;23.13;;;11.05;;
25123;SDS011;13104;51.030;4.686;2023-07-20T05:17:25;23.92;;;10.70;;
25123;SDS011;13104;51.030;4.686;2023-07-20T05:19:51;19.58;;;11.25;;
25123;SDS011;13104;51.030;4.686;2023-07-20T05:22:17;22.70;;;11.02;;
25123;SDS011;13104;51.030;4.686;2023-07-20T05:24:43;20.85;;;10.93;;
25123;SDS011;13104;51.030;4.686;2023-07-20T05:27:09;23.15;;;10.60;;
25123;SDS011;13104;51.030;4.686;2023-07-20T05:29:35;19.48;;;10.93;;
25123;SDS011;13104;51.030;4.686;2023-07-20T05:32:02;19.23;;;9.88;;
25123;SDS011;13104;51.030;4.686;2023-07-20T05:34:28;17.95;;;10.27;;
25123;SDS011;13104;51.030;4.686;2023-07-20T05:36:54;22.30;;;11.63;;
25123;SDS011;13104;51.030;4.686;2023-07-20T05:39:20;20.83;;;10.85;;
25123;SDS011;13104;51.030;4.686;2023-07-20T05:41:46;20.00;;;11.23;;
25123;SDS011;13104;51.030;4.686;2023-07-20T05:44:13;21.27;;;11.35;;
25123;SDS011;13104;51.030;4.686;2023-07-20T05:46:39;20.80;;;11.05;;
25123;SDS011;13104;51.030;4.686;2023-07-20T05:49:05;26.90;;;11.50;;
25123;SDS011;13104;51.030;4.686;2023-07-20T05:51:31;19.55;;;11.25;;
25123;SDS011;13104;51.030;4.686;2023-07-20T05:53:57;22.08;;;12.13;;
25123;SDS011;13104;51.030;4.686;2023-07-20T05:56:23;23.40;;;11.68;;
25123;SDS011;13104;51.030;4.686;2023-07-20T05:58:50;22.25;;;10.95;;
25123;SDS011;13104;51.030;4.686;2023-07-20T06:01:16;19.33;;;11.77;;
25123;SDS011;13104;51.030;4.686;2023-07-20T06:03:44;19.77;;;10.85;;
25123;SDS011;13104;51.030;4.686;2023-07-20T06:06:10;22.15;;;12.02;;
25123;SDS011;13104;51.030;4.686;2023-07-20T06:08:37;19.88;;;10.95;;
25123;SDS011;13104;51.030;4.686;2023-07-20T06:11:03;18.52;;;11.57;;
25123;SDS011;13104;51.030;4.686;2023-07-20T06:13:29;18.25;;;10.70;;
25123;SDS011;13104;51.030;4.686;2023-07-20T06:15:56;23.02;;;12.90;;
25123;SDS011;13104;51.030;4.686;2023-07-20T06:18:22;19.38;;;11.88;;
25123;SDS011;13104;51.030;4.686;2023-07-20T06:20:49;20.48;;;12.90;;
25123;SDS011;13104;51.030;4.686;2023-07-20T06:23:16;22.13;;;12.60;;
25123;SDS011;13104;51.030;4.686;2023-07-20T06:25:42;21.45;;;12.77;;
25123;SDS011;13104;51.030;4.686;2023-07-20T06:28:08;20.08;;;11.93;;
25123;SDS011;13104;51.030;4.686;2023-07-20T06:30:34;20.55;;;12.95;;
25123;SDS011;13104;51.030;4.686;2023-07-20T06:33:00;22.45;;;13.23;;
25123;SDS011;13104;51.030;4.686;2023-07-20T06:35:26;23.02;;;14.48;;
25123;SDS011;13104;51.030;4.686;2023-07-20T06:37:53;24.65;;;14.93;;
25123;SDS011;13104;51.030;4.686;2023-07-20T06:40:19;25.13;;;14.60;;
25123;SDS011;13104;51.030;4.686;2023-07-20T06:42:45;27.27;;;14.82;;
25123;SDS011;13104;51.030;4.686;2023-07-20T06:45:11;23.48;;;15.25;;
25123;SDS011;13104;51.030;4.686;2023-07-20T06:47:38;24.10;;;13.90;;
25123;SDS011;13104;51.030;4.686;2023-07-20T06:50:07;20.30;;;12.65;;
25123;SDS011;13104;51.030;4.686;2023-07-20T06:52:34;19.42;;;13.20;;
25123;SDS011;13104;51.030;4.686;2023-07-20T06:55:00;21.23;;;13.93;;
25123;SDS011;13104;51.030;4.686;2023-07-20T06:57:26;22.10;;;14.15;;
25123;SDS011;13104;51.030;4.686;2023-07-20T06:59:52;21.67;;;13.60;;
25123;SDS011;13104;51.030;4.686;2023-07-20T07:02:18;24.10;;;13.82;;
25123;SDS011;13104;51.030;4.686;2023-07-20T07:04:44;21.40;;;14.25;;
25123;SDS011;13104;51.030;4.686;2023-07-20T07:07:13;22.77;;;13.73;;
25123;SDS011;13104;51.030;4.686;2023-07-20T07:09:39;18.58;;;12.65;;
25123;SDS011;13104;51.030;4.686;2023-07-20T07:12:05;21.60;;;13.57;;
25123;SDS011;13104;51.030;4.686;2023-07-20T07:14:32;24.10;;;15.40;;
25123;SDS011;13104;51.030;4.686;2023-07-20T07:16:58;21.60;;;13.88;;
25123;SDS011;13104;51.030;4.686;2023-07-20T07:19:24;20.00;;;11.82;;
25123;SDS011;13104;51.030;4.686;2023-07-20T07:21:50;18.10;;;11.52;;
25123;SDS011;13104;51.030;4.686;2023-07-20T07:24:16;23.15;;;12.93;;
25123;SDS011;13104;51.030;4.686;2023-07-20T07:26:42;19.35;;;12.05;;
25123;SDS011;13104;51.030;4.686;2023-07-20T07:29:09;15.93;;;12.05;;
25123;SDS011;13104;51.030;4.686;2023-07-20T07:31:35;17.73;;;10.77;;
25123;SDS011;13104;51.030;4.686;2023-07-20T07:34:01;17.55;;;12.10;;
25123;SDS011;13104;51.030;4.686;2023-07-20T07:36:28;20.15;;;12.82;;
25123;SDS011;13104;51.030;4.686;2023-07-20T07:38:54;15.50;;;10.40;;
25123;SDS011;13104;51.030;4.686;2023-07-20T07:41:20;17.05;;;11.38;;
25123;SDS011;13104;51.030;4.686;2023-07-20T07:43:47;17.15;;;10.40;;
25123;SDS011;13104;51.030;4.686;2023-07-20T07:46:13;16.45;;;10.10;;
25123;SDS011;13104;51.030;4.686;2023-07-20T07:48:39;13.52;;;9.35;;
25123;SDS011;13104;51.030;4.686;2023-07-20T07:51:05;12.15;;;8.43;;
25123;SDS011;13104;51.030;4.686;2023-07-20T07:53:32;11.73;;;7.13;;
25123;SDS011;13104;51.030;4.686;2023-07-20T07:55:58;13.80;;;8.88;;
25123;SDS011;13104;51.030;4.686;2023-07-20T07:58:24;12.80;;;8.73;;
25123;SDS011;13104;51.030;4.686;2023-07-20T08:00:50;10.45;;;8.18;;
25123;SDS011;13104;51.030;4.686;2023-07-20T08:03:16;13.77;;;9.60;;
25123;SDS011;13104;51.030;4.686;2023-07-20T08:05:43;11.30;;;7.75;;
25123;SDS011;13104;51.030;4.686;2023-07-20T08:08:09;22.13;;;8.32;;
25123;SDS011;13104;51.030;4.686;2023-07-20T08:10:35;11.68;;;7.78;;
25123;SDS011;13104;51.030;4.686;2023-07-20T08:13:01;12.38;;;7.63;;
25123;SDS011;13104;51.030;4.686;2023-07-20T08:15:27;8.18;;;6.53;;
25123;SDS011;13104;51.030;4.686;2023-07-20T08:17:54;7.80;;;6.25;;
25123;SDS011;13104;51.030;4.686;2023-07-20T08:20:20;13.43;;;7.50;;
25123;SDS011;13104;51.030;4.686;2023-07-20T08:22:51;11.25;;;7.00;;
25123;SDS011;13104;51.030;4.686;2023-07-20T08:25:18;11.75;;;6.85;;
25123;SDS011;13104;51.030;4.686;2023-07-20T08:27:44;7.68;;;5.30;;
25123;SDS011;13104;51.030;4.686;2023-07-20T08:30:12;6.93;;;4.72;;
25123;SDS011;13104;51.030;4.686;2023-07-20T08:32:38;8.98;;;5.28;;
25123;SDS011;13104;51.030;4.686;2023-07-20T08:35:04;7.15;;;4.80;;
25123;SDS011;13104;51.030;4.686;2023-07-20T08:37:31;9.10;;;5.72;;
25123;SDS011;13104;51.030;4.686;2023-07-20T08:39:57;8.30;;;5.35;;
25123;SDS011;13104;51.030;4.686;2023-07-20T08:42:23;6.45;;;4.80;;
25123;SDS011;13104;51.030;4.686;2023-07-20T08:44:49;6.40;;;4.70;;
25123;SDS011;13104;51.030;4.686;2023-07-20T08:47:17;9.95;;;5.15;;
25123;SDS011;13104;51.030;4.686;2023-07-20T08:49:44;8.57;;;4.90;;
25123;SDS011;13104;51.030;4.686;2023-07-20T08:52:10;8.35;;;4.80;;
25123;SDS011;13104;51.030;4.686;2023-07-20T08:54:37;4.13;;;3.55;;
25123;SDS011;13104;51.030;4.686;2023-07-20T08:57:04;6.55;;;4.10;;
25123;SDS011;13104;51.030;4.686;2023-07-20T08:59:31;6.03;;;3.45;;
25123;SDS011;13104;51.030;4.686;2023-07-20T09:02:00;4.32;;;3.08;;
25123;SDS011;13104;51.030;4.686;2023-07-20T09:04:28;6.95;;;3.08;;
25123;SDS011;13104;51.030;4.686;2023-07-20T09:06:54;4.32;;;3.20;;
25123;SDS011;13104;51.030;4.686;2023-07-20T09:09:20;5.93;;;2.53;;
25123;SDS011;13104;51.030;4.686;2023-07-20T09:11:49;3.35;;;2.80;;
25123;SDS011;13104;51.030;4.686;2023-07-20T09:14:16;4.80;;;2.72;;
25123;SDS011;13104;51.030;4.686;2023-07-20T09:16:55;4.60;;;2.70;;
25123;SDS011;13104;51.030;4.686;2023-07-20T09:19:21;7.97;;;3.33;;
25123;SDS011;13104;51.030;4.686;2023-07-20T09:21:48;4.60;;;3.13;;
25123;SDS011;13104;51.030;4.686;2023-07-20T09:24:14;5.60;;;3.10;;
25123;SDS011;13104;51.030;4.686;2023-07-20T09:26:42;6.65;;;2.92;;
25123;SDS011;13104;51.030;4.686;2023-07-20T09:29:08;4.75;;;3.05;;
25123;SDS011;13104;51.030;4.686;2023-07-20T09:31:35;3.72;;;2.38;;
25123;SDS011;13104;51.030;4.686;2023-07-20T09:34:01;2.83;;;2.60;;
25123;SDS011;13104;51.030;4.686;2023-07-20T09:36:28;2.22;;;1.83;;
25123;SDS011;13104;51.030;4.686;2023-07-20T09:38:56;3.28;;;2.20;;
25123;SDS011;13104;51.030;4.686;2023-07-20T09:41:24;3.08;;;2.03;;
25123;SDS011;13104;51.030;4.686;2023-07-20T09:43:51;3.35;;;2.60;;
25123;SDS011;13104;51.030;4.686;2023-07-20T09:46:18;4.07;;;2.40;;
25123;SDS011;13104;51.030;4.686;2023-07-20T09:48:51;3.05;;;2.20;;
25123;SDS011;13104;51.030;4.686;2023-07-20T09:51:21;3.22;;;2.20;;
25123;SDS011;13104;51.030;4.686;2023-07-20T09:53:48;3.85;;;2.40;;
25123;SDS011;13104;51.030;4.686;2023-07-20T09:56:15;3.83;;;2.20;;
25123;SDS011;13104;51.030;4.686;2023-07-20T09:58:43;2.33;;;1.50;;
25123;SDS011;13104;51.030;4.686;2023-07-20T10:01:10;4.05;;;2.40;;
25123;SDS011;13104;51.030;4.686;2023-07-20T10:03:39;7.28;;;2.50;;
25123;SDS011;13104;51.030;4.686;2023-07-20T10:06:06;4.30;;;2.25;;
25123;SDS011;13104;51.030;4.686;2023-07-20T10:08:35;3.80;;;2.20;;
25123;SDS011;13104;51.030;4.686;2023-07-20T10:11:05;4.68;;;2.13;;
25123;SDS011;13104;51.030;4.686;2023-07-20T10:13:31;3.42;;;2.25;;
25123;SDS011;13104;51.030;4.686;2023-07-20T10:16:08;2.80;;;1.90;;
25123;SDS011;13104;51.030;4.686;2023-07-20T10:18:44;3.58;;;2.15;;
25123;SDS011;13104;51.030;4.686;2023-07-20T10:21:13;4.30;;;1.88;;
25123;SDS011;13104;51.030;4.686;2023-07-20T10:23:43;5.63;;;2.35;;
25123;SDS011;13104;51.030;4.686;2023-07-20T10:26:09;4.53;;;1.83;;
25123;SDS011;13104;51.030;4.686;2023-07-20T10:28:36;4.20;;;2.40;;
25123;SDS011;13104;51.030;4.686;2023-07-20T10:31:02;4.45;;;1.98;;
25123;SDS011;13104;51.030;4.686;2023-07-20T10:33:28;2.60;;;1.70;;
25123;SDS011;13104;51.030;4.686;2023-07-20T10:35:55;3.67;;;1.75;;
25123;SDS011;13104;51.030;4.686;2023-07-20T10:38:40;3.38;;;1.80;;
25123;SDS011;13104;51.030;4.686;2023-07-20T10:41:17;4.07;;;1.70;;
25123;SDS011;13104;51.030;4.686;2023-07-20T10:43:44;3.30;;;1.50;;
25123;SDS011;13104;51.030;4.686;2023-07-20T10:46:11;2.90;;;1.48;;
25123;SDS011;13104;51.030;4.686;2023-07-20T10:48:58;2.75;;;1.55;;
25123;SDS011;13104;51.030;4.686;2023-07-20T10:51:23;3.00;;;1.55;;
25123;SDS011;13104;51.030;4.686;2023-07-20T10:53:49;2.10;;;1.20;;
25123;SDS011;13104;51.030;4.686;2023-07-20T10:56:22;2.10;;;1.50;;
25123;SDS011;13104;51.030;4.686;2023-07-20T10:58:48;3.80;;;1.40;;
25123;SDS011;13104;51.030;4.686;2023-07-20T11:01:18;2.80;;;1.77;;
25123;SDS011;13104;51.030;4.686;2023-07-20T11:03:48;2.15;;;1.17;;
25123;SDS011;13104;51.030;4.686;2023-07-20T11:11:29;3.03;;;1.30;;
25123;SDS011;13104;51.030;4.686;2023-07-20T11:13:56;3.53;;;1.33;;
25123;SDS011;13104;51.030;4.686;2023-07-20T11:16:33;1.10;;;1.00;;
25123;SDS011;13104;51.030;4.686;2023-07-20T11:18:59;3.20;;;1.40;;
25123;SDS011;13104;51.030;4.686;2023-07-20T11:21:25;2.03;;;1.20;;
25123;SDS011;13104;51.030;4.686;2023-07-20T11:23:52;2.83;;;1.00;;
25123;SDS011;13104;51.030;4.686;2023-07-20T11:26:18;2.65;;;1.10;;
25123;SDS011;13104;51.030;4.686;2023-07-20T11:28:51;4.60;;;1.30;;
25123;SDS011;13104;51.030;4.686;2023-07-20T11:31:18;2.58;;;1.02;;
25123;SDS011;13104;51.030;4.686;2023-07-20T11:33:44;2.75;;;1.10;;
25123;SDS011;13104;51.030;4.686;2023-07-20T11:36:11;1.63;;;1.17;;
25123;SDS011;13104;51.030;4.686;2023-07-20T11:38:37;1.10;;;1.00;;
25123;SDS011;13104;51.030;4.686;2023-07-20T11:41:04;5.57;;;1.20;;
25123;SDS011;13104;51.030;4.686;2023-07-20T11:43:30;7.47;;;1.10;;
25123;SDS011;13104;51.030;4.686;2023-07-20T11:45:56;3.85;;;1.17;;
25123;SDS011;13104;51.030;4.686;2023-07-20T11:48:22;2.45;;;1.08;;
25123;SDS011;13104;51.030;4.686;2023-07-20T11:50:49;1.58;;;1.00;;
25123;SDS011;13104;51.030;4.686;2023-07-20T11:53:15;1.55;;;0.73;;
25123;SDS011;13104;51.030;4.686;2023-07-20T11:55:41;1.70;;;0.90;;
25123;SDS011;13104;51.030;4.686;2023-07-20T11:58:08;2.95;;;1.00;;
25123;SDS011;13104;51.030;4.686;2023-07-20T12:00:36;1.20;;;0.90;;
25123;SDS011;13104;51.030;4.686;2023-07-20T12:03:04;1.33;;;0.80;;
25123;SDS011;13104;51.030;4.686;2023-07-20T12:05:31;2.17;;;0.80;;
25123;SDS011;13104;51.030;4.686;2023-07-20T12:07:58;2.63;;;1.20;;
25123;SDS011;13104;51.030;4.686;2023-07-20T12:10:27;1.33;;;0.80;;
25123;SDS011;13104;51.030;4.686;2023-07-20T12:12:54;1.55;;;0.80;;
25123;SDS011;13104;51.030;4.686;2023-07-20T12:15:24;1.63;;;0.70;;
25123;SDS011;13104;51.030;4.686;2023-07-20T12:22:55;3.38;;;0.80;;
25123;SDS011;13104;51.030;4.686;2023-07-20T12:25:21;1.40;;;0.90;;
25123;SDS011;13104;51.030;4.686;2023-07-20T12:27:47;1.17;;;0.70;;
25123;SDS011;13104;51.030;4.686;2023-07-20T12:30:14;1.48;;;0.60;;
25123;SDS011;13104;51.030;4.686;2023-07-20T12:32:40;2.53;;;0.68;;
25123;SDS011;13104;51.030;4.686;2023-07-20T12:35:06;1.35;;;0.80;;
25123;SDS011;13104;51.030;4.686;2023-07-20T12:37:32;4.35;;;0.90;;
25123;SDS011;13104;51.030;4.686;2023-07-20T12:39:58;0.95;;;0.85;;
25123;SDS011;13104;51.030;4.686;2023-07-20T12:42:25;2.70;;;0.77;;
25123;SDS011;13104;51.030;4.686;2023-07-20T12:44:51;1.48;;;0.80;;
25123;SDS011;13104;51.030;4.686;2023-07-20T12:47:17;3.47;;;0.80;;
25123;SDS011;13104;51.030;4.686;2023-07-20T12:49:44;0.90;;;0.80;;
25123;SDS011;13104;51.030;4.686;2023-07-20T12:52:10;3.10;;;0.85;;
25123;SDS011;13104;51.030;4.686;2023-07-20T12:54:36;2.25;;;0.90;;
25123;SDS011;13104;51.030;4.686;2023-07-20T12:57:02;1.27;;;0.77;;
25123;SDS011;13104;51.030;4.686;2023-07-20T12:59:29;2.83;;;0.95;;
25123;SDS011;13104;51.030;4.686;2023-07-20T13:01:55;2.15;;;0.80;;
25123;SDS011;13104;51.030;4.686;2023-07-20T13:04:21;2.03;;;0.80;;
25123;SDS011;13104;51.030;4.686;2023-07-20T13:06:47;2.03;;;0.70;;
25123;SDS011;13104;51.030;4.686;2023-07-20T13:09:13;1.58;;;0.80;;
25123;SDS011;13104;51.030;4.686;2023-07-20T13:11:39;0.90;;;0.65;;
25123;SDS011;13104;51.030;4.686;2023-07-20T13:14:05;1.40;;;0.60;;
25123;SDS011;13104;51.030;4.686;2023-07-20T13:16:31;1.33;;;0.80;;
25123;SDS011;13104;51.030;4.686;2023-07-20T13:18:59;1.15;;;0.70;;
25123;SDS011;13104;51.030;4.686;2023-07-20T13:21:25;1.23;;;0.80;;
25123;SDS011;13104;51.030;4.686;2023-07-20T13:23:51;2.92;;;0.85;;
25123;SDS011;13104;51.030;4.686;2023-07-20T13:26:17;1.40;;;0.82;;
25123;SDS011;13104;51.030;4.686;2023-07-20T13:28:43;2.55;;;0.98;;
25123;SDS011;13104;51.030;4.686;2023-07-20T13:31:09;1.63;;;0.80;;
25123;SDS011;13104;51.030;4.686;2023-07-20T13:33:36;0.90;;;0.68;;
25123;SDS011;13104;51.030;4.686;2023-07-20T13:36:02;1.95;;;0.90;;
25123;SDS011;13104;51.030;4.686;2023-07-20T13:38:30;1.52;;;0.80;;
25123;SDS011;13104;51.030;4.686;2023-07-20T13:40:56;3.05;;;0.90;;
25123;SDS011;13104;51.030;4.686;2023-07-20T13:43:22;2.05;;;0.80;;
25123;SDS011;13104;51.030;4.686;2023-07-20T13:45:49;1.83;;;0.88;;
25123;SDS011;13104;51.030;4.686;2023-07-20T13:48:15;3.35;;;1.00;;
25123;SDS011;13104;51.030;4.686;2023-07-20T13:50:44;1.75;;;0.90;;
25123;SDS011;13104;51.030;4.686;2023-07-20T13:53:10;1.77;;;0.70;;
25123;SDS011;13104;51.030;4.686;2023-07-20T13:55:36;1.20;;;0.80;;
25123;SDS011;13104;51.030;4.686;2023-07-20T13:58:03;2.47;;;0.95;;
25123;SDS011;13104;51.030;4.686;2023-07-20T14:00:29;1.45;;;0.90;;
25123;SDS011;13104;51.030;4.686;2023-07-20T14:02:58;4.65;;;1.17;;
25123;SDS011;13104;51.030;4.686;2023-07-20T14:05:24;3.42;;;1.05;;
25123;SDS011;13104;51.030;4.686;2023-07-20T14:07:50;3.78;;;1.30;;
25123;SDS011;13104;51.030;4.686;2023-07-20T14:10:17;3.08;;;1.13;;
25123;SDS011;13104;51.030;4.686;2023-07-20T14:12:43;5.05;;;1.00;;
25123;SDS011;13104;51.030;4.686;2023-07-20T14:15:10;1.80;;;1.05;;
25123;SDS011;13104;51.030;4.686;2023-07-20T14:17:36;1.92;;;1.00;;
25123;SDS011;13104;51.030;4.686;2023-07-20T14:20:02;5.15;;;1.20;;
25123;SDS011;13104;51.030;4.686;2023-07-20T14:22:33;2.05;;;1.08;;
25123;SDS011;13104;51.030;4.686;2023-07-20T14:24:59;1.95;;;0.90;;
25123;SDS011;13104;51.030;4.686;2023-07-20T14:27:25;2.40;;;1.15;;
25123;SDS011;13104;51.030;4.686;2023-07-20T14:29:51;1.65;;;0.90;;
25123;SDS011;13104;51.030;4.686;2023-07-20T14:32:18;1.50;;;1.10;;
25123;SDS011;13104;51.030;4.686;2023-07-20T14:34:44;3.95;;;1.25;;
25123;SDS011;13104;51.030;4.686;2023-07-20T14:37:10;3.30;;;1.20;;
25123;SDS011;13104;51.030;4.686;2023-07-20T14:39:37;2.38;;;1.40;;
25123;SDS011;13104;51.030;4.686;2023-07-20T14:42:03;5.47;;;1.30;;
25123;SDS011;13104;51.030;4.686;2023-07-20T14:44:30;1.88;;;1.40;;
25123;SDS011;13104;51.030;4.686;2023-07-20T14:46:56;3.08;;;1.35;;
25123;SDS011;13104;51.030;4.686;2023-07-20T14:49:22;3.67;;;1.70;;
25123;SDS011;13104;51.030;4.686;2023-07-20T14:51:48;2.75;;;1.20;;
25123;SDS011;13104;51.030;4.686;2023-07-20T14:54:14;3.70;;;1.50;;